createdAt,value
2023-05-09T00:00:46.828Z,3.00
2023-05-09T00:03:14.369Z,3.08
2023-05-09T00:05:41.910Z,3.10
2023-05-09T00:08:08.827Z,2.40
2023-05-09T00:10:35.977Z,2.97
2023-05-09T00:13:02.910Z,3.20
2023-05-09T00:15:30.400Z,2.60
2023-05-09T00:17:57.170Z,3.13
2023-05-09T00:20:24.001Z,3.20
2023-05-09T00:22:51.005Z,2.50
2023-05-09T00:25:17.880Z,3.03
2023-05-09T00:27:44.677Z,2.90
2023-05-09T00:30:11.801Z,2.53
2023-05-09T00:32:40.188Z,2.88
2023-05-09T00:35:08.900Z,2.53
2023-05-09T00:37:35.720Z,2.47
2023-05-09T00:40:05.608Z,3.03
2023-05-09T00:42:32.483Z,3.17
2023-05-09T00:45:00.035Z,2.50
2023-05-09T00:47:29.158Z,2.53
2023-05-09T00:49:58.180Z,2.63
2023-05-09T00:52:26.135Z,2.70
2023-05-09T00:54:54.990Z,2.75
2023-05-09T00:57:23.246Z,2.63
2023-05-09T00:59:50.203Z,2.40
2023-05-09T01:02:18.412Z,2.42
2023-05-09T01:04:49.356Z,2.78
2023-05-09T01:07:52.478Z,2.63
2023-05-09T01:10:58.356Z,2.50
2023-05-09T01:13:41.186Z,2.25
2023-05-09T01:16:33.557Z,2.80
2023-05-09T01:19:22.954Z,3.45
2023-05-09T01:21:51.945Z,2.50
2023-05-09T01:24:42.090Z,2.28
2023-05-09T01:28:07.780Z,5.13
2023-05-09T01:30:37.615Z,4.25
2023-05-09T01:33:08.211Z,3.13
2023-05-09T01:35:39.755Z,3.25
2023-05-09T01:38:16.067Z,2.75
2023-05-09T01:40:44.825Z,2.33
2023-05-09T01:43:15.051Z,2.70
2023-05-09T01:45:43.125Z,2.58
2023-05-09T01:48:12.832Z,2.40
2023-05-09T01:50:41.586Z,2.42
2023-05-09T01:53:10.977Z,2.00
2023-05-09T01:55:39.915Z,2.33
2023-05-09T01:58:08.263Z,2.40
2023-05-09T02:00:36.560Z,2.22
2023-05-09T02:03:04.839Z,2.20
2023-05-09T02:05:33.769Z,2.33
2023-05-09T02:08:01.058Z,1.60
2023-05-09T02:10:28.857Z,1.77
2023-05-09T02:12:57.320Z,2.17
2023-05-09T02:15:25.009Z,2.13
2023-05-09T02:17:52.168Z,1.88
2023-05-09T02:20:19.483Z,1.80
2023-05-09T02:22:47.984Z,2.42
2023-05-09T02:25:15.747Z,2.08
2023-05-09T02:27:46.665Z,2.05
2023-05-09T02:30:20.594Z,2.17
2023-05-09T02:35:18.717Z,1.50
2023-05-09T02:37:47.244Z,1.85
2023-05-09T02:40:14.732Z,1.80
2023-05-09T02:42:41.743Z,2.10
2023-05-09T02:45:10.525Z,2.03
2023-05-09T02:47:38.795Z,2.10
2023-05-09T02:50:06.663Z,1.80
2023-05-09T02:52:33.417Z,2.20
2023-05-09T02:55:00.384Z,1.92
2023-05-09T02:57:27.149Z,2.10
2023-05-09T02:59:53.907Z,2.08
2023-05-09T03:02:20.789Z,1.95
2023-05-09T03:04:47.569Z,2.08
2023-05-09T03:07:14.555Z,2.20
2023-05-09T03:09:41.486Z,1.75
2023-05-09T03:12:08.280Z,2.38
2023-05-09T03:14:35.066Z,2.15
2023-05-09T03:17:01.780Z,2.05
2023-05-09T03:19:28.536Z,1.88
2023-05-09T03:21:55.294Z,2.13
2023-05-09T03:24:22.399Z,2.10
2023-05-09T03:26:49.117Z,2.00
2023-05-09T03:29:15.890Z,2.55
2023-05-09T03:31:42.648Z,2.05
2023-05-09T03:34:14.849Z,2.03
2023-05-09T03:36:43.697Z,1.65
2023-05-09T03:39:10.998Z,2.10
2023-05-09T03:41:37.891Z,2.38
2023-05-09T03:44:05.331Z,1.98
2023-05-09T03:46:32.317Z,1.98
2023-05-09T03:48:59.078Z,1.73
2023-05-09T03:51:26.393Z,2.20
2023-05-09T03:53:53.189Z,2.17
2023-05-09T03:56:19.896Z,2.17
2023-05-09T03:58:46.682Z,2.10
2023-05-09T04:01:13.716Z,1.92
2023-05-09T04:03:41.240Z,2.55
2023-05-09T04:06:08.175Z,2.40
2023-05-09T04:08:34.952Z,2.25
2023-05-09T04:11:01.768Z,2.90
2023-05-09T04:13:30.042Z,2.47
2023-05-09T04:15:56.866Z,2.47
2023-05-09T04:18:23.571Z,2.67
2023-05-09T04:20:50.373Z,2.58
2023-05-09T04:23:17.080Z,2.38
2023-05-09T04:25:43.791Z,2.60
2023-05-09T04:28:10.562Z,2.40
2023-05-09T04:30:37.600Z,2.35
2023-05-09T04:33:04.475Z,2.85
2023-05-09T04:35:31.319Z,2.38
2023-05-09T04:37:58.028Z,2.55
2023-05-09T04:40:26.754Z,2.63
2023-05-09T04:42:53.855Z,3.15
2023-05-09T04:45:20.639Z,2.67
2023-05-09T04:47:47.403Z,2.70
2023-05-09T04:50:14.218Z,2.97
2023-05-09T04:52:41.066Z,2.67
2023-05-09T04:55:08.274Z,3.60
2023-05-09T04:57:35.067Z,3.15
2023-05-09T05:00:01.778Z,2.83
2023-05-09T05:02:28.565Z,2.55
2023-05-09T05:05:06.317Z,2.60
2023-05-09T05:07:38.095Z,2.70
2023-05-09T05:10:06.572Z,2.50
2023-05-09T05:12:33.398Z,2.38
2023-05-09T05:15:00.651Z,2.65
2023-05-09T05:17:29.404Z,2.50
2023-05-09T05:19:56.329Z,2.42
2023-05-09T05:22:23.124Z,2.70
2023-05-09T05:24:50.047Z,2.63
2023-05-09T05:27:16.795Z,2.80
2023-05-09T05:29:44.102Z,2.20
2023-05-09T05:32:11.068Z,2.80
2023-05-09T05:34:39.331Z,2.63
2023-05-09T05:37:06.188Z,2.53
2023-05-09T05:39:32.945Z,2.75
2023-05-09T05:41:59.699Z,2.67
2023-05-09T05:44:26.436Z,2.83
2023-05-09T05:46:53.218Z,2.47
2023-05-09T05:49:19.955Z,2.80
2023-05-09T05:51:46.657Z,2.63
2023-05-09T05:54:13.426Z,2.60
2023-05-09T05:56:40.277Z,2.38
2023-05-09T05:59:07.009Z,2.20
2023-05-09T06:01:34.811Z,2.60
2023-05-09T06:04:01.709Z,3.55
2023-05-09T06:06:28.613Z,2.47
2023-05-09T06:08:55.701Z,2.90
2023-05-09T06:11:23.377Z,2.35
2023-05-09T06:13:50.107Z,2.20
2023-05-09T06:16:19.850Z,2.50
2023-05-09T06:18:47.950Z,2.13
2023-05-09T06:21:14.715Z,2.63
2023-05-09T06:23:51.089Z,2.35
2023-05-09T06:26:28.210Z,2.33
2023-05-09T06:28:55.114Z,2.50
2023-05-09T06:31:22.553Z,2.38
2023-05-09T06:33:50.985Z,2.30
2023-05-09T06:36:17.734Z,2.47
2023-05-09T06:38:44.491Z,2.60
2023-05-09T06:41:11.263Z,2.25
2023-05-09T06:43:37.998Z,2.13
2023-05-09T06:46:04.752Z,2.55
2023-05-09T06:48:31.516Z,2.10
2023-05-09T06:50:58.268Z,2.42
2023-05-09T06:53:25.072Z,2.15
2023-05-09T06:55:51.879Z,2.60
2023-05-09T06:58:18.631Z,2.42
2023-05-09T07:00:45.408Z,2.75
2023-05-09T07:03:12.188Z,2.80
2023-05-09T07:05:39.136Z,3.53
2023-05-09T07:08:05.926Z,3.20
2023-05-09T07:10:33.120Z,2.67
2023-05-09T07:12:59.902Z,2.80
2023-05-09T07:15:39.712Z,2.97
2023-05-09T07:18:08.746Z,2.47
2023-05-09T07:20:35.558Z,2.40
2023-05-09T07:23:04.313Z,2.13
2023-05-09T07:25:31.138Z,2.78
2023-05-09T07:27:58.616Z,2.40
2023-05-09T07:30:25.692Z,2.63
2023-05-09T07:32:52.884Z,2.80
2023-05-09T07:35:20.918Z,2.80
2023-05-09T07:37:47.713Z,2.47
2023-05-09T07:40:15.526Z,2.47
2023-05-09T07:42:46.156Z,2.85
2023-05-09T07:45:13.110Z,2.45
2023-05-09T07:47:40.090Z,2.00
2023-05-09T07:50:07.548Z,2.30
2023-05-09T07:52:34.283Z,2.55
2023-05-09T07:55:01.113Z,2.45
2023-05-09T07:57:28.017Z,2.47
2023-05-09T07:59:54.932Z,2.70
2023-05-09T08:02:21.776Z,2.58
2023-05-09T08:04:49.093Z,2.50
2023-05-09T08:07:16.158Z,2.63
2023-05-09T08:09:42.915Z,2.83
2023-05-09T08:12:09.739Z,2.65
2023-05-09T08:14:36.503Z,2.00
2023-05-09T08:17:03.284Z,2.50
2023-05-09T08:19:30.169Z,2.75
2023-05-09T08:21:56.946Z,2.42
2023-05-09T08:24:23.717Z,2.03
2023-05-09T08:26:50.654Z,2.05
2023-05-09T08:29:17.808Z,2.47
2023-05-09T08:31:44.686Z,2.13
2023-05-09T08:34:11.514Z,2.20
2023-05-09T08:36:38.271Z,2.60
2023-05-09T08:39:05.042Z,2.55
2023-05-09T08:41:36.015Z,2.65
2023-05-09T08:44:03.561Z,2.25
2023-05-09T08:46:38.263Z,2.30
2023-05-09T08:49:08.749Z,2.05
2023-05-09T08:51:39.871Z,2.30
2023-05-09T08:54:06.893Z,2.45
2023-05-09T08:56:35.830Z,2.20
2023-05-09T08:59:05.707Z,2.30
2023-05-09T09:01:35.780Z,2.35
2023-05-09T09:04:09.647Z,2.17
2023-05-09T09:09:08.430Z,1.83
2023-05-09T09:11:37.444Z,2.08
2023-05-09T09:14:15.414Z,2.28
2023-05-09T09:16:46.265Z,2.10
2023-05-09T09:19:17.082Z,2.30
2023-05-09T09:21:47.418Z,1.80
2023-05-09T09:24:19.924Z,2.67
2023-05-09T09:26:49.314Z,2.67
2023-05-09T09:29:18.750Z,2.60
2023-05-09T09:31:47.364Z,2.53
2023-05-09T09:34:21.929Z,2.13
2023-05-09T09:36:49.226Z,2.17
2023-05-09T09:39:16.181Z,2.40
2023-05-09T09:41:44.847Z,2.38
2023-05-09T09:44:18.464Z,2.08
2023-05-09T09:46:46.662Z,2.00
2023-05-09T09:49:16.363Z,2.15
2023-05-09T09:51:43.869Z,2.38
2023-05-09T09:54:12.949Z,2.00
2023-05-09T09:56:44.822Z,2.10
2023-05-09T09:59:15.464Z,2.05
2023-05-09T10:02:07.176Z,2.35
2023-05-09T10:04:37.381Z,2.20
2023-05-09T10:07:07.229Z,2.30
2023-05-09T10:09:35.809Z,2.50
2023-05-09T10:12:06.200Z,2.13
2023-05-09T10:14:36.900Z,2.50
2023-05-09T10:17:05.735Z,2.50
2023-05-09T10:19:33.707Z,2.50
2023-05-09T10:22:10.143Z,2.67
2023-05-09T10:25:06.874Z,2.15
2023-05-09T10:27:36.835Z,2.17
2023-05-09T10:30:13.745Z,2.35
2023-05-09T10:32:58.226Z,2.60
2023-05-09T10:35:36.329Z,2.30
2023-05-09T10:38:04.097Z,2.05
2023-05-09T10:40:32.617Z,2.17
2023-05-09T10:42:59.414Z,2.50
2023-05-09T10:45:27.121Z,1.88
2023-05-09T10:47:56.479Z,1.98
2023-05-09T10:50:24.077Z,1.85
2023-05-09T10:53:11.005Z,1.80
2023-05-09T10:56:01.975Z,1.70
2023-05-09T10:58:33.669Z,2.15
2023-05-09T11:01:04.503Z,1.98
2023-05-09T11:03:57.818Z,2.45
2023-05-09T11:06:50.822Z,2.20
2023-05-09T11:09:28.840Z,2.05
2023-05-09T11:12:14.178Z,2.15
2023-05-09T11:14:45.311Z,1.83
2023-05-09T11:17:22.831Z,1.90
2023-05-09T11:19:49.825Z,1.98
2023-05-09T11:22:28.239Z,2.30
2023-05-09T11:25:15.275Z,2.10
2023-05-09T11:27:47.876Z,2.15
2023-05-09T11:30:20.767Z,2.53
2023-05-09T11:33:00.932Z,2.60
2023-05-09T11:35:28.026Z,2.00
2023-05-09T11:38:04.535Z,2.38
2023-05-09T11:40:33.852Z,1.90
2023-05-09T11:43:01.515Z,2.25
2023-05-09T11:45:33.379Z,1.95
2023-05-09T11:48:01.239Z,2.03
2023-05-09T11:50:29.380Z,2.10
2023-05-09T11:52:56.330Z,2.30
2023-05-09T11:55:23.297Z,2.15
2023-05-09T11:57:53.725Z,2.17
2023-05-09T12:00:23.917Z,2.67
2023-05-09T12:02:52.648Z,2.08
2023-05-09T12:05:23.461Z,1.98
2023-05-09T12:07:52.253Z,1.83
2023-05-09T12:10:23.499Z,1.88
2023-05-09T12:12:53.057Z,2.08
2023-05-09T12:15:21.564Z,2.10
2023-05-09T12:18:03.097Z,1.90
2023-05-09T12:20:50.227Z,2.20
2023-05-09T12:23:17.398Z,2.00
2023-05-09T12:25:56.180Z,2.05
2023-05-09T12:28:24.979Z,1.90
2023-05-09T12:30:53.968Z,1.80
2023-05-09T12:33:21.346Z,1.90
2023-05-09T12:36:03.163Z,1.88
2023-05-09T12:38:30.342Z,1.90
2023-05-09T12:41:15.438Z,2.00
2023-05-09T12:43:51.021Z,2.00
2023-05-09T12:46:20.209Z,2.20
2023-05-09T12:48:48.543Z,2.50
2023-05-09T12:51:20.944Z,2.10
2023-05-09T12:53:48.548Z,2.10
2023-05-09T12:56:20.177Z,1.85
2023-05-09T12:58:53.167Z,1.90
2023-05-09T13:01:23.073Z,2.50
2023-05-09T13:04:01.466Z,1.95
2023-05-09T13:06:28.189Z,1.65
2023-05-09T13:09:05.908Z,1.77
2023-05-09T13:11:32.740Z,1.83
2023-05-09T13:13:59.692Z,1.90
2023-05-09T13:16:27.022Z,1.77
2023-05-09T13:18:53.855Z,1.92
2023-05-09T13:21:21.007Z,1.92
2023-05-09T13:23:50.061Z,1.92
2023-05-09T13:26:16.980Z,1.88
2023-05-09T13:28:43.752Z,2.17
2023-05-09T13:31:10.705Z,1.60
2023-05-09T13:33:37.714Z,1.75
2023-05-09T13:36:04.884Z,1.88
2023-05-09T13:38:32.336Z,2.05
2023-05-09T13:41:00.118Z,1.98
2023-05-09T13:43:27.347Z,2.47
2023-05-09T13:45:54.201Z,2.08
2023-05-09T13:48:21.217Z,2.03
2023-05-09T13:50:47.955Z,2.00
2023-05-09T13:53:14.767Z,2.15
2023-05-09T13:55:41.523Z,2.55
2023-05-09T13:58:08.333Z,2.08
2023-05-09T14:00:35.293Z,2.00
2023-05-09T14:03:03.309Z,1.85
2023-05-09T14:05:33.735Z,1.75
2023-05-09T14:08:01.651Z,1.83
2023-05-09T14:10:28.530Z,2.03
2023-05-09T14:12:55.322Z,1.90
2023-05-09T14:15:22.100Z,1.88
2023-05-09T14:17:49.010Z,1.90
2023-05-09T14:20:16.090Z,2.10
2023-05-09T14:22:43.224Z,1.88
2023-05-09T14:25:10.164Z,1.90
2023-05-09T14:27:37.244Z,2.05
2023-05-09T14:30:05.089Z,2.08
2023-05-09T14:32:32.690Z,2.00
2023-05-09T14:34:59.584Z,2.38
2023-05-09T14:37:26.397Z,2.15
2023-05-09T14:39:53.181Z,2.00
2023-05-09T14:42:20.032Z,2.17
2023-05-09T14:44:47.349Z,2.25
2023-05-09T14:47:14.328Z,2.10
2023-05-09T14:49:41.385Z,2.10
2023-05-09T14:52:08.273Z,2.25
2023-05-09T14:54:35.539Z,1.85
2023-05-09T14:57:04.598Z,1.75
2023-05-09T14:59:32.123Z,2.13
2023-05-09T15:01:59.125Z,1.95
2023-05-09T15:04:30.432Z,2.00
2023-05-09T15:06:58.903Z,2.08
2023-05-09T15:09:26.499Z,2.17
2023-05-09T15:11:53.975Z,2.00
2023-05-09T15:14:20.759Z,1.90
2023-05-09T15:16:48.305Z,2.13
2023-05-09T15:19:15.174Z,1.98
2023-05-09T15:21:41.951Z,1.80
2023-05-09T15:24:08.863Z,1.58
2023-05-09T15:26:35.588Z,2.17
2023-05-09T15:29:02.474Z,2.03
2023-05-09T15:31:33.543Z,2.08
2023-05-09T15:34:01.373Z,1.98
2023-05-09T15:36:30.092Z,2.00
2023-05-09T15:38:57.048Z,1.83
2023-05-09T15:41:24.143Z,2.08
2023-05-09T15:43:51.871Z,2.10
2023-05-09T15:46:18.873Z,2.25
2023-05-09T15:48:46.141Z,2.20
2023-05-09T15:51:13.831Z,2.08
2023-05-09T15:53:40.854Z,1.90
2023-05-09T15:56:08.905Z,1.95
2023-05-09T15:58:35.931Z,1.83
2023-05-09T16:01:05.960Z,1.73
2023-05-09T16:03:32.950Z,1.65
2023-05-09T16:06:00.639Z,2.33
2023-05-09T16:08:27.474Z,1.83
2023-05-09T16:10:54.272Z,1.90
2023-05-09T16:13:21.663Z,3.03
2023-05-09T16:15:50.042Z,1.90
2023-05-09T16:18:16.923Z,1.90
2023-05-09T16:20:44.051Z,2.58
2023-05-09T16:23:11.689Z,2.50
2023-05-09T16:25:38.741Z,1.75
2023-05-09T16:28:07.138Z,2.00
2023-05-09T16:30:34.373Z,2.08
2023-05-09T16:33:01.194Z,1.85
2023-05-09T16:35:28.304Z,1.50
2023-05-09T16:37:55.040Z,1.70
2023-05-09T16:40:22.042Z,2.40
2023-05-09T16:42:49.380Z,2.00
2023-05-09T16:45:16.258Z,2.03
2023-05-09T16:47:43.062Z,2.13
2023-05-09T16:50:10.667Z,2.10
2023-05-09T16:52:37.694Z,2.08
2023-05-09T16:55:04.962Z,2.10
2023-05-09T16:57:31.797Z,2.38
2023-05-09T16:59:58.549Z,2.65
2023-05-09T17:02:25.318Z,2.30
2023-05-09T17:04:52.538Z,2.20
2023-05-09T17:07:19.388Z,2.33
2023-05-09T17:09:46.234Z,2.20
2023-05-09T17:12:17.994Z,1.90
2023-05-09T17:14:46.640Z,2.33
2023-05-09T17:17:14.736Z,2.25
2023-05-09T17:19:41.588Z,1.95
2023-05-09T17:22:08.687Z,2.40
2023-05-09T17:24:35.631Z,2.03
2023-05-09T17:27:02.700Z,1.90
2023-05-09T17:29:30.692Z,2.58
2023-05-09T17:32:01.590Z,2.10
2023-05-09T17:34:29.007Z,2.03
2023-05-09T17:36:56.251Z,1.85
2023-05-09T17:39:23.284Z,2.20
2023-05-09T17:41:50.256Z,2.20
2023-05-09T17:44:17.057Z,2.30
2023-05-09T17:46:44.126Z,1.90
2023-05-09T17:49:13.817Z,2.20
2023-05-09T17:51:40.826Z,1.98
2023-05-09T17:54:07.663Z,1.90
2023-05-09T17:56:34.730Z,2.30
2023-05-09T17:59:01.565Z,2.15
2023-05-09T18:01:28.899Z,2.33
2023-05-09T18:03:55.975Z,2.55
2023-05-09T18:06:23.027Z,2.70
2023-05-09T18:08:49.770Z,2.25
2023-05-09T18:11:16.565Z,2.15
2023-05-09T18:13:43.275Z,2.50
2023-05-09T18:16:10.010Z,2.65
2023-05-09T18:18:36.843Z,2.45
2023-05-09T18:21:05.329Z,2.67
2023-05-09T18:23:32.093Z,2.60
2023-05-09T18:25:59.131Z,2.78
2023-05-09T18:28:26.069Z,2.50
2023-05-09T18:30:58.062Z,2.47
2023-05-09T18:33:27.676Z,2.40
2023-05-09T18:35:55.535Z,2.50
2023-05-09T18:38:22.793Z,2.30
2023-05-09T18:40:51.797Z,2.58
2023-05-09T18:43:20.668Z,2.30
2023-05-09T18:45:48.057Z,2.17
2023-05-09T18:48:17.702Z,2.40
2023-05-09T18:50:44.711Z,2.60
2023-05-09T18:53:12.413Z,2.35
2023-05-09T18:55:39.171Z,2.42
2023-05-09T18:58:07.061Z,2.42
2023-05-09T19:00:35.676Z,2.80
2023-05-09T19:03:02.578Z,2.40
2023-05-09T19:05:29.584Z,2.30
2023-05-09T19:07:57.056Z,1.90
2023-05-09T19:10:24.271Z,2.70
2023-05-09T19:12:51.189Z,2.03
2023-05-09T19:15:18.148Z,2.20
2023-05-09T19:17:44.917Z,2.30
2023-05-09T19:20:12.515Z,2.42
2023-05-09T19:22:41.228Z,2.00
2023-05-09T19:25:08.754Z,1.90
2023-05-09T19:27:35.620Z,2.17
2023-05-09T19:30:05.045Z,2.35
2023-05-09T19:32:31.869Z,2.00
2023-05-09T19:34:58.759Z,2.30
2023-05-09T19:37:25.561Z,2.10
2023-05-09T19:39:52.791Z,2.53
2023-05-09T19:42:19.571Z,1.90
2023-05-09T19:44:46.458Z,2.28
2023-05-09T19:47:13.264Z,1.70
2023-05-09T19:49:42.412Z,2.13
2023-05-09T19:52:09.193Z,2.08
2023-05-09T19:54:35.978Z,2.25
2023-05-09T19:57:06.210Z,2.25
2023-05-09T19:59:33.112Z,2.33
2023-05-09T20:02:00.040Z,2.80
2023-05-09T20:04:26.932Z,2.30
2023-05-09T20:06:54.136Z,2.70
2023-05-09T20:09:21.251Z,2.30
2023-05-09T20:11:48.548Z,2.45
2023-05-09T20:14:15.296Z,2.15
2023-05-09T20:16:43.828Z,2.00
2023-05-09T20:19:14.382Z,2.20
2023-05-09T20:21:41.234Z,1.77
2023-05-09T20:24:09.046Z,2.00
2023-05-09T20:26:35.804Z,1.95
2023-05-09T20:29:02.591Z,2.17
2023-05-09T20:31:29.842Z,2.28
2023-05-09T20:33:57.798Z,2.80
2023-05-09T20:36:25.833Z,2.42
2023-05-09T20:38:52.678Z,1.85
2023-05-09T20:41:19.423Z,2.72
2023-05-09T20:43:46.189Z,2.70
2023-05-09T20:46:14.327Z,3.13
2023-05-09T20:48:41.200Z,2.60
2023-05-09T20:51:07.959Z,2.88
2023-05-09T20:53:35.803Z,2.28
2023-05-09T20:56:02.574Z,2.53
2023-05-09T20:58:33.110Z,2.40
2023-05-09T21:01:00.412Z,2.45
2023-05-09T21:03:27.289Z,2.50
2023-05-09T21:05:54.438Z,2.45
2023-05-09T21:08:21.200Z,2.63
2023-05-09T21:10:50.992Z,2.20
2023-05-09T21:13:17.765Z,2.58
2023-05-09T21:15:46.503Z,2.22
2023-05-09T21:18:13.318Z,2.55
2023-05-09T21:20:40.111Z,2.63
2023-05-09T21:23:06.903Z,2.38
2023-05-09T21:25:33.733Z,2.30
2023-05-09T21:28:00.465Z,2.97
2023-05-09T21:30:27.241Z,2.67
2023-05-09T21:32:54.178Z,2.88
2023-05-09T21:35:20.979Z,2.70
2023-05-09T21:37:48.555Z,2.75
2023-05-09T21:40:15.536Z,2.55
2023-05-09T21:42:44.068Z,2.80
2023-05-09T21:45:11.409Z,2.75
2023-05-09T21:47:39.706Z,2.50
2023-05-09T21:50:07.702Z,2.35
2023-05-09T21:52:34.488Z,2.83
2023-05-09T21:55:01.247Z,2.95
2023-05-09T21:57:28.009Z,2.80
2023-05-09T21:59:56.761Z,3.00
2023-05-09T22:02:23.720Z,2.90
2023-05-09T22:04:50.492Z,2.80
2023-05-09T22:07:17.241Z,3.03
2023-05-09T22:09:44.006Z,2.33
2023-05-09T22:12:10.740Z,2.83
2023-05-09T22:14:48.564Z,3.00
2023-05-09T22:17:22.474Z,2.97
2023-05-09T22:19:49.247Z,2.95
2023-05-09T22:22:15.987Z,3.28
2023-05-09T22:24:42.815Z,3.30
2023-05-09T22:27:10.545Z,3.05
2023-05-09T22:29:37.430Z,3.30
2023-05-09T22:32:04.752Z,2.95
2023-05-09T22:34:31.571Z,3.15
2023-05-09T22:36:58.337Z,3.10
2023-05-09T22:39:25.210Z,3.15
2023-05-09T22:41:51.993Z,3.20
2023-05-09T22:44:18.792Z,3.30
2023-05-09T22:46:45.749Z,3.28
2023-05-09T22:49:12.851Z,2.90
2023-05-09T22:51:39.753Z,3.10
2023-05-09T22:54:06.526Z,3.08
2023-05-09T22:56:33.337Z,2.78
2023-05-09T22:59:00.187Z,3.00
2023-05-09T23:01:27.469Z,3.20
2023-05-09T23:03:54.767Z,2.88
2023-05-09T23:06:21.520Z,3.22
2023-05-09T23:08:48.255Z,2.97
2023-05-09T23:11:15.413Z,2.72
2023-05-09T23:13:42.374Z,3.22
2023-05-09T23:16:09.312Z,3.65
2023-05-09T23:18:36.385Z,2.92
2023-05-09T23:21:04.514Z,2.90
2023-05-09T23:23:31.255Z,3.22
2023-05-09T23:25:58.341Z,3.10
2023-05-09T23:28:25.364Z,3.00
2023-05-09T23:30:54.045Z,3.15
2023-05-09T23:33:21.436Z,3.53
2023-05-09T23:35:48.480Z,3.65
2023-05-09T23:38:15.271Z,3.75
2023-05-09T23:40:45.926Z,3.45
2023-05-09T23:43:13.533Z,3.20
2023-05-09T23:45:40.417Z,3.42
2023-05-09T23:48:07.616Z,3.60
2023-05-09T23:50:34.598Z,3.13
2023-05-09T23:53:01.586Z,3.13
2023-05-09T23:55:28.358Z,3.28
2023-05-09T23:57:55.106Z,2.97
